Time;durP1;ratioP1;P1;durP2;ratioP2;P2;SDS_P1;SDS_P2;PMS_P1;PMS_P2;Temp;Humidity;BMP_temperature;BMP_pressure;BME280_temperature;BME280_humidity;BME280_pressure;Samples;Min_cycle;Max_cycle;Signal;HPM_P1;HPM_P2
2022/01/30 06:38:44;;;;;;;;;;;;;;;3.79;82.54;98266.22;4241611;27;10360;-67
2022/01/30 06:40:46;;;;;;;;;;;;;;;3.86;82.13;98256.97;4212697;28;5853;-67
2022/01/30 06:42:48;;;;;;;;;;;;;;;3.90;82.05;98266.25;4194458;28;5870;-68
2022/01/30 06:44:50;;;;;;;;;;;;;;;3.98;81.70;98269.13;4210750;28;5897;-67
2022/01/30 06:46:52;;;;;;;;;;;;;;;4.00;81.59;98269.00;4236257;27;5722;-66
2022/01/30 06:48:53;;;;;;;;;;;;;;;4.00;81.49;98269.84;4211315;28;5120;-68
2022/01/30 06:50:55;;;;;;;;;;;;;;;4.00;81.40;98255.94;4229384;28;5702;-68
2022/01/30 06:52:56;;;;;;;;;;;;;;;4.03;81.28;98259.13;4211215;28;5856;-68
2022/01/30 06:54:58;;;;;;;;;;;;;;;4.10;81.08;98264.75;4194293;28;5862;-68
2022/01/30 06:57:00;;;;;;;;;;;;;;;4.09;80.89;98258.69;4229365;28;6410;-68
2022/01/30 06:59:02;;;;;;;;;;;;;;;4.09;80.68;98263.91;4229575;28;5706;-68
2022/01/30 07:01:03;;;;;;;;;;;;;;;4.15;80.49;98269.63;4229291;28;5730;-68
2022/01/30 07:03:06;;;;;;;;;;;;;;;4.15;80.47;98270.47;4229415;28;5703;-67
2022/01/30 07:05:08;;;;;;;;;;;;;;;4.12;80.53;98264.63;4194262;28;5933;-67
2022/01/30 07:07:10;;;;;;;;;;;;;;;4.10;80.52;98259.53;4229391;28;5762;-67
2022/01/30 07:09:12;;;;;;;;;;;;;;;4.16;80.27;98266.06;4229266;28;5711;-68
2022/01/30 07:11:15;;;;;;;;;;;;;;;4.08;80.50;98262.25;4194083;28;5870;-66
2022/01/30 07:13:16;;;;;;;;;;;;;;;4.14;79.92;98270.56;4229328;28;5734;-67
2022/01/30 07:15:18;;;;;;;;;;;;;;;3.91;80.37;98267.91;4210766;28;5861;-69
2022/01/30 07:17:20;;;;;;;;;;;;;;;4.09;80.33;98274.38;4229173;28;5754;-68
2022/01/30 07:19:21;;;;;;;;;;;;;;;4.25;79.66;98273.22;4229184;28;5711;-68
2022/01/30 07:21:23;;;;;;;;;;;;;;;4.15;79.84;98272.25;4210588;28;5853;-68
2022/01/30 07:23:25;;;;;;;;;;;;;;;4.18;79.88;98270.22;4224363;28;5811;-68
2022/01/30 07:25:31;;;;;;;;;;;;;;;4.14;80.10;98273.19;4227562;28;5868;-68
2022/01/30 07:27:35;;;;;;;;;;;;;;;4.23;79.72;98285.59;4246000;27;5692;-68
2022/01/30 07:29:37;;;;;;;;;;;;;;;4.31;79.28;98268.34;4227591;28;5815;-67
2022/01/30 07:31:39;;;;;;;;;;;;;;;4.37;79.43;98273.09;4227273;28;5827;-67
2022/01/30 07:33:41;;;;;;;;;;;;;;;4.33;79.64;98282.16;4199208;28;5837;-67
2022/01/30 07:35:43;;;;;;;;;;;;;;;4.27;79.54;98279.16;4208049;28;5852;-68
2022/01/30 07:37:45;;;;;;;;;;;;;;;4.14;80.37;98279.25;4245379;27;5712;-67
2022/01/30 07:39:48;;;;;;;;;;;;;;;4.19;80.17;98279.75;4219039;28;5730;-67
2022/01/30 07:41:50;;;;;;;;;;;;;;;4.39;79.78;98275.59;4199053;28;5913;-68
2022/01/30 07:43:51;;;;;;;;;;;;;;;4.46;79.24;98270.72;4182237;28;5907;-67
2022/01/30 07:45:54;;;;;;;;;;;;;;;4.43;79.73;98277.03;4201485;28;5836;-67
2022/01/30 07:47:57;;;;;;;;;;;;;;;4.41;79.81;98280.72;4204672;28;5853;-68
2022/01/30 07:49:58;;;;;;;;;;;;;;;4.41;80.07;98280.72;4198373;28;5993;-68
2022/01/30 07:52:00;;;;;;;;;;;;;;;4.44;79.57;98270.84;4203649;28;5887;-66
2022/01/30 07:54:02;;;;;;;;;;;;;;;4.48;79.59;98277.50;4198792;28;6561;-68
2022/01/30 07:56:04;;;;;;;;;;;;;;;4.47;79.69;98275.00;4230265;28;5812;-67
2022/01/30 07:58:06;;;;;;;;;;;;;;;4.40;80.13;98287.72;4195186;28;6506;-67
2022/01/30 08:00:12;;;;;;;;;;;;;;;4.44;79.91;98273.47;4234196;28;5716;-66
2022/01/30 08:02:15;;;;;;;;;;;;;;;4.45;79.45;98275.13;4214632;28;5846;-67
2022/01/30 08:04:19;;;;;;;;;;;;;;;4.42;79.52;98275.38;4212880;28;5824;-66
2022/01/30 08:06:23;;;;;;;;;;;;;;;4.43;79.68;98261.34;4207866;28;6440;-67
2022/01/30 08:08:28;;;;;;;;;;;;;;;4.34;80.03;98272.50;4214540;28;5719;-67
2022/01/30 08:10:32;;;;;;;;;;;;;;;4.31;80.19;98262.28;4222128;28;6483;-67
2022/01/30 08:12:36;;;;;;;;;;;;;;;4.32;80.28;98269.19;4200042;28;5853;-68
2022/01/30 08:14:37;;;;;;;;;;;;;;;4.33;80.29;98263.81;4211016;28;5811;-67
2022/01/30 08:16:40;;;;;;;;;;;;;;;4.19;81.17;98264.06;4232917;28;6403;-67
2022/01/30 08:18:43;;;;;;;;;;;;;;;4.27;81.05;98258.22;4230846;28;5691;-66
2022/01/30 08:20:44;;;;;;;;;;;;;;;4.42;80.54;98254.44;4232448;28;5708;-66
2022/01/30 08:22:51;;;;;;;;;;;;;;;4.37;80.37;98256.56;4213884;28;5936;-67
2022/01/30 08:24:52;;;;;;;;;;;;;;;4.39;80.54;98254.66;4213918;28;5832;-67
2022/01/30 08:26:54;;;;;;;;;;;;;;;4.27;81.47;98258.22;4231764;28;5712;-67
2022/01/30 08:28:55;;;;;;;;;;;;;;;4.42;80.66;98254.44;4233237;28;5700;-67
2022/01/30 08:30:57;;;;;;;;;;;;;;;4.59;80.20;98256.56;4209821;28;5831;-68
2022/01/30 08:32:59;;;;;;;;;;;;;;;4.63;80.23;98252.72;4231707;28;5809;-66
2022/01/30 08:35:02;;;;;;;;;;;;;;;4.46;80.91;98255.84;4207596;28;5943;-68
2022/01/30 08:37:05;;;;;;;;;;;;;;;4.38;81.82;98251.19;4180857;23;6599;-68
2022/01/30 08:39:06;;;;;;;;;;;;;;;4.57;80.93;98248.00;4164049;28;5764;-67
2022/01/30 08:41:09;;;;;;;;;;;;;;;4.66;80.87;98247.28;4160373;28;5879;-66
2022/01/30 08:43:12;;;;;;;;;;;;;;;4.58;81.28;98239.19;4146625;28;5868;-67
2022/01/30 08:45:16;;;;;;;;;;;;;;;4.52;81.59;98255.34;4144312;28;5989;-68
2022/01/30 08:47:18;;;;;;;;;;;;;;;4.64;81.12;98259.66;4148388;28;5880;-67
2022/01/30 08:49:19;;;;;;;;;;;;;;;4.62;81.23;98251.06;4165555;28;5789;-67
2022/01/30 08:51:24;;;;;;;;;;;;;;;4.72;81.09;98255.59;4163477;28;5859;-66
2022/01/30 08:53:26;;;;;;;;;;;;;;;4.80;80.59;98247.97;4140671;28;5940;-67
2022/01/30 08:55:29;;;;;;;;;;;;;;;4.78;80.70;98252.50;4121824;28;5916;-67
2022/01/30 08:57:31;;;;;;;;;;;;;;;4.93;80.37;98254.72;4164797;28;5787;-67
2022/01/30 08:59:33;;;;;;;;;;;;;;;4.99;80.38;98253.41;4147922;28;5877;-67
2022/01/30 09:01:35;;;;;;;;;;;;;;;5.06;80.09;98244.09;4166710;28;5761;-67
2022/01/30 09:03:37;;;;;;;;;;;;;;;5.08;79.87;98242.16;4178259;28;6000;-66
2022/01/30 09:05:39;;;;;;;;;;;;;;;5.02;79.98;98252.34;4161232;28;5964;-68
2022/01/30 09:07:41;;;;;;;;;;;;;;;5.02;80.14;98253.16;4172996;28;5833;-67
2022/01/30 09:09:43;;;;;;;;;;;;;;;5.07;79.79;98245.75;4180102;28;5780;-68
2022/01/30 09:11:45;;;;;;;;;;;;;;;5.02;79.93;98252.34;4157957;28;5913;-67
2022/01/30 09:13:46;;;;;;;;;;;;;;;4.99;80.06;98252.59;4151285;28;5855;-67
2022/01/30 09:15:48;;;;;;;;;;;;;;;4.98;80.16;98256.97;4148222;28;5869;-66
2022/01/30 09:17:52;;;;;;;;;;;;;;;4.93;80.28;98253.91;4164472;28;5851;-67
2022/01/30 09:19:54;;;;;;;;;;;;;;;4.80;80.61;98251.41;4160615;28;5847;-67
2022/01/30 09:21:56;;;;;;;;;;;;;;;4.68;81.87;98255.84;4158043;28;5886;-67
2022/01/30 09:23:58;;;;;;;;;;;;;;;4.84;81.02;98263.31;4172826;28;5839;-66
2022/01/30 09:26:02;;;;;;;;;;;;;;;5.08;80.17;98257.91;4181580;28;5773;-67
2022/01/30 09:28:04;;;;;;;;;;;;;;;5.13;80.01;98250.50;4161254;28;5859;-66
2022/01/30 09:30:07;;;;;;;;;;;;;;;4.95;80.84;98258.06;4162167;28;5823;-66
2022/01/30 09:32:12;;;;;;;;;;;;;;;5.01;80.64;98256.75;4180827;28;5749;-66
2022/01/30 09:34:15;;;;;;;;;;;;;;;5.05;80.24;98252.91;4178726;28;5893;-66
2022/01/30 09:36:17;;;;;;;;;;;;;;;4.88;81.20;98245.59;4170798;28;5809;-67
2022/01/30 09:38:19;;;;;;;;;;;;;;;5.03;80.70;98257.44;4153313;28;5856;-67
2022/01/30 09:40:23;;;;;;;;;;;;;;;5.09;80.65;98254.31;4160272;28;5764;-67
2022/01/30 09:42:26;;;;;;;;;;;;;;;5.14;80.16;98243.47;4139599;28;6021;-67
2022/01/30 09:44:29;;;;;;;;;;;;;;;5.18;80.31;98243.09;4173265;28;5835;-68
2022/01/30 09:46:34;;;;;;;;;;;;;;;5.27;79.70;98246.78;4173402;28;5784;-67
2022/01/30 09:48:38;;;;;;;;;;;;;;;5.34;79.26;98247.13;4176640;28;6504;-68
2022/01/30 09:50:42;;;;;;;;;;;;;;;5.16;79.83;98244.19;4176605;28;5846;-67
2022/01/30 09:52:45;;;;;;;;;;;;;;;5.14;80.44;98244.31;4141593;28;5906;-66
2022/01/30 09:54:48;;;;;;;;;;;;;;;5.27;79.78;98241.53;4147468;28;6667;-68
2022/01/30 09:56:49;;;;;;;;;;;;;;;5.33;79.67;98241.03;4150826;28;5844;-69
2022/01/30 09:58:52;;;;;;;;;;;;;;;5.26;79.84;98240.69;4158072;28;5782;-69
2022/01/30 10:00:53;;;;;;;;;;;;;;;5.44;79.58;98240.16;4171600;28;5762;-70
2022/01/30 10:02:55;;;;;;;;;;;;;;;5.47;79.36;98243.38;4161645;28;5956;-73
2022/01/30 10:04:57;;;;;;;;;;;;;;;5.48;79.68;98238.94;4145833;28;6531;-70
2022/01/30 10:07:05;;;;;;;;;;;;;;;5.42;79.56;98234.19;4173436;28;5738;-71
2022/01/30 10:09:23;;;;;;;;;;;;;;;5.23;80.26;98230.47;4162958;28;5864;-71
2022/01/30 10:11:46;;;;;;;;;;;;;;;5.30;80.20;98228.16;4178513;28;5761;-71
2022/01/30 10:14:00;;;;;;;;;;;;;;;5.42;79.60;98229.78;4156128;28;5866;-70
2022/01/30 10:16:04;;;;;;;;;;;;;;;5.38;80.21;98225.75;4170846;28;5737;-70
2022/01/30 10:18:06;;;;;;;;;;;;;;;5.58;79.24;98218.03;4155523;28;5946;-69
2022/01/30 10:20:14;;;;;;;;;;;;;;;5.65;78.95;98219.19;4157175;28;5884;-68
2022/01/30 10:22:16;;;;;;;;;;;;;;;5.69;78.77;98216.19;4131193;28;5944;-70
2022/01/30 10:24:25;;;;;;;;;;;;;;;5.66;79.10;98218.22;4147158;28;5967;-70
2022/01/30 10:26:31;;;;;;;;;;;;;;;5.73;78.75;98220.22;4165155;28;5809;-70
2022/01/30 10:28:33;;;;;;;;;;;;;;;5.66;79.03;98212.97;4165279;28;5760;-70
2022/01/30 10:30:49;;;;;;;;;;;;;;;5.61;79.26;98212.53;4165101;28;5794;-70
2022/01/30 10:32:55;;;;;;;;;;;;;;;5.44;79.51;98214.78;4148961;28;5864;-68
2022/01/30 10:35:06;;;;;;;;;;;;;;;5.49;79.85;98202.09;4181623;28;5938;-69
2022/01/30 10:37:23;;;;;;;;;;;;;;;5.46;79.99;98218.09;4180879;28;5130;-69
2022/01/30 10:39:30;;;;;;;;;;;;;;;5.40;79.78;98202.84;4145843;28;5097;-70
2022/01/30 10:41:37;;;;;;;;;;;;;;;5.42;79.84;98203.56;4130846;28;5886;-69
2022/01/30 10:43:59;;;;;;;;;;;;;;;5.47;79.51;98196.16;4147092;28;6629;-69
2022/01/30 10:46:16;;;;;;;;;;;;;;;5.43;79.64;98199.97;4147231;28;5883;-69
2022/01/30 10:48:21;;;;;;;;;;;;;;;5.43;79.78;98199.13;4146529;28;5245;-70
2022/01/30 10:50:22;;;;;;;;;;;;;;;5.41;79.83;98198.44;4179911;28;5863;-69
2022/01/30 10:52:24;;;;;;;;;;;;;;;5.45;79.73;98192.00;4181656;28;5764;-69
2022/01/30 10:54:33;;;;;;;;;;;;;;;5.44;79.71;98185.94;4162710;28;5940;-69
2022/01/30 10:56:36;;;;;;;;;;;;;;;5.34;79.80;98181.56;4147157;28;5857;-69
2022/01/30 10:58:38;;;;;;;;;;;;;;;5.36;79.93;98177.03;4131438;28;6288;-69
2022/01/30 11:00:45;;;;;;;;;;;;;;;5.46;79.78;98176.13;4164902;28;6461;-69
2022/01/30 11:02:48;;;;;;;;;;;;;;;5.53;79.52;98172.03;4165123;28;5828;-69
2022/01/30 11:05:01;;;;;;;;;;;;;;;5.57;79.61;98159.50;4164908;28;5760;-69
2022/01/30 11:07:04;;;;;;;;;;;;;;;5.66;79.50;98152.63;4147158;28;5865;-69
2022/01/30 11:09:11;;;;;;;;;;;;;;;5.72;79.15;98158.19;4164927;28;5800;-69
2022/01/30 11:13:33;;;;;;;;;;;;;;;5.68;79.05;98146.31;4165293;28;5760;-70
2022/01/30 11:15:39;;;;;;;;;;;;;;;5.57;80.17;98138.50;4173550;28;5744;-69
2022/01/30 11:17:43;;;;;;;;;;;;;;;5.64;79.91;98138.81;4184590;28;5761;-70
2022/01/30 11:19:53;;;;;;;;;;;;;;;5.85;79.35;98137.00;4184315;28;5734;-69
2022/01/30 11:22:13;;;;;;;;;;;;;;;5.90;78.81;98128.75;4184258;28;5822;-68
2022/01/30 11:24:16;;;;;;;;;;;;;;;5.94;79.23;98119.66;4166305;28;6029;-70
2022/01/30 11:26:18;;;;;;;;;;;;;;;6.02;78.81;98114.59;4149432;28;5872;-69
2022/01/30 11:28:21;;;;;;;;;;;;;;;6.12;78.69;98118.94;4166541;28;5843;-70
2022/01/30 11:30:24;;;;;;;;;;;;;;;6.16;78.45;98106.34;4182715;28;5757;-69
2022/01/30 11:32:27;;;;;;;;;;;;;;;6.16;78.44;98101.09;4166009;28;5864;-69
2022/01/30 11:34:30;;;;;;;;;;;;;;;6.12;78.19;98103.16;4165514;28;5827;-68
2022/01/30 11:36:34;;;;;;;;;;;;;;;6.19;78.46;98103.44;4167722;28;5760;-69
2022/01/30 11:38:37;;;;;;;;;;;;;;;6.14;78.22;98097.78;4167337;28;5100;-70
2022/01/30 11:40:38;;;;;;;;;;;;;;;6.18;78.51;98099.16;4149522;28;5876;-70
2022/01/30 11:42:45;;;;;;;;;;;;;;;6.24;78.22;98095.19;4149886;28;5943;-70
2022/01/30 11:44:49;;;;;;;;;;;;;;;6.30;78.25;98100.72;4167214;28;5791;-70
2022/01/30 11:47:11;;;;;;;;;;;;;;;6.31;77.87;98091.88;4149742;28;5988;-68
2022/01/30 11:49:14;;;;;;;;;;;;;;;6.32;77.93;98087.44;4166256;28;5808;-69
2022/01/30 11:51:16;;;;;;;;;;;;;;;6.32;78.02;98093.53;4183970;28;5730;-69
2022/01/30 11:53:28;;;;;;;;;;;;;;;6.22;78.05;98102.34;4174170;28;5807;-69
2022/01/30 11:56:00;;;;;;;;;;;;;;;6.25;77.74;98094.22;4149628;28;5826;-69
2022/01/30 11:58:02;;;;;;;;;;;;;;;6.28;78.00;98094.78;4149468;28;5865;-69
2022/01/30 12:00:07;;;;;;;;;;;;;;;6.26;78.16;98088.84;4128939;28;5917;-69
2022/01/30 12:02:29;;;;;;;;;;;;;;;6.10;78.15;98088.50;4149685;28;6458;-70
2022/01/30 12:04:53;;;;;;;;;;;;;;;6.09;78.42;98084.22;4165609;28;6047;-69
2022/01/30 12:06:57;;;;;;;;;;;;;;;6.20;78.15;98084.09;4167451;28;6690;-68
2022/01/30 12:09:02;;;;;;;;;;;;;;;6.07;79.09;98083.53;4165637;28;5871;-69
2022/01/30 12:11:04;;;;;;;;;;;;;;;6.12;78.83;98086.59;4149417;28;5864;-70
2022/01/30 12:13:06;;;;;;;;;;;;;;;6.19;78.62;98071.94;4161656;28;5855;-70
2022/01/30 12:15:33;;;;;;;;;;;;;;;6.26;78.58;98072.25;4183336;28;5820;-69
2022/01/30 12:17:45;;;;;;;;;;;;;;;6.21;78.74;98072.63;4183864;28;5729;-70
2022/01/30 12:19:47;;;;;;;;;;;;;;;6.25;78.38;98066.16;4183487;28;5730;-69
2022/01/30 12:21:48;;;;;;;;;;;;;;;6.27;78.46;98068.66;4181710;28;5804;-69
2022/01/30 12:23:50;;;;;;;;;;;;;;;6.20;78.71;98059.63;4183423;28;5753;-69
2022/01/30 12:26:05;;;;;;;;;;;;;;;6.15;79.01;98052.19;4183320;28;5769;-69
2022/01/30 12:28:08;;;;;;;;;;;;;;;6.23;78.75;98062.00;4181303;28;5737;-69
2022/01/30 12:30:30;;;;;;;;;;;;;;;6.41;78.29;98050.69;4156986;28;5876;-69
2022/01/30 12:32:32;;;;;;;;;;;;;;;6.46;77.85;98046.84;4148962;28;5872;-70
2022/01/30 12:34:34;;;;;;;;;;;;;;;6.45;78.36;98043.38;4155313;28;5962;-70
2022/01/30 12:36:38;;;;;;;;;;;;;;;6.55;77.91;98040.75;4166839;28;5749;-70
2022/01/30 12:38:39;;;;;;;;;;;;;;;6.53;77.48;98029.56;4179771;28;5891;-70
2022/01/30 12:40:46;;;;;;;;;;;;;;;6.64;77.65;98024.16;4165424;28;5788;-69
2022/01/30 12:42:48;;;;;;;;;;;;;;;6.57;77.52;98016.03;4180842;28;5765;-70
2022/01/30 12:44:50;;;;;;;;;;;;;;;6.61;77.66;98016.56;4164920;28;5851;-69
2022/01/30 12:46:53;;;;;;;;;;;;;;;6.75;77.64;98008.25;4182691;28;5757;-69
2022/01/30 12:49:23;;;;;;;;;;;;;;;6.83;77.40;98005.78;4165109;28;5182;-69
2022/01/30 12:51:26;;;;;;;;;;;;;;;6.88;76.87;98000.91;4156096;28;5841;-70
2022/01/30 12:53:31;;;;;;;;;;;;;;;6.82;77.75;97995.41;4182928;28;5062;-70
2022/01/30 12:55:33;;;;;;;;;;;;;;;6.92;77.28;97999.69;4165076;28;5788;-69
2022/01/30 12:57:35;;;;;;;;;;;;;;;6.90;76.64;97988.44;4180919;28;5753;-69
2022/01/30 12:59:37;;;;;;;;;;;;;;;6.97;77.14;97989.56;4148391;28;5881;-69
2022/01/30 13:01:43;;;;;;;;;;;;;;;7.08;76.85;97987.72;4164712;28;5910;-69
2022/01/30 13:03:45;;;;;;;;;;;;;;;7.12;76.71;97979.41;4165067;28;6712;-69
2022/01/30 13:05:48;;;;;;;;;;;;;;;7.05;76.45;97967.81;4147741;28;5872;-69
2022/01/30 13:07:52;;;;;;;;;;;;;;;7.09;76.85;97971.81;4148668;28;5872;-69
2022/01/30 13:10:12;;;;;;;;;;;;;;;7.09;76.56;97957.84;4182848;28;5749;-70
2022/01/30 13:12:16;;;;;;;;;;;;;;;7.17;76.85;97953.53;4183056;28;5729;-70
2022/01/30 13:14:18;;;;;;;;;;;;;;;7.25;76.19;97950.19;4182417;28;5885;-69
2022/01/30 13:16:22;;;;;;;;;;;;;;;7.20;76.32;97947.97;4164212;28;5895;-69
2022/01/30 13:18:25;;;;;;;;;;;;;;;7.18;76.20;97946.47;4148186;28;5798;-68
2022/01/30 13:20:28;;;;;;;;;;;;;;;7.17;76.87;97947.44;4147438;28;6138;-69
2022/01/30 13:22:34;;;;;;;;;;;;;;;7.12;76.40;97945.22;4164679;28;7172;-70
2022/01/30 13:24:38;;;;;;;;;;;;;;;6.86;77.52;97939.75;4182320;28;5747;-69
2022/01/30 13:26:42;;;;;;;;;;;;;;;6.92;77.26;97944.47;4163436;28;5840;-69
2022/01/30 13:28:51;;;;;;;;;;;;;;;7.00;77.35;97938.47;4164620;28;5855;-69
2022/01/30 13:30:54;;;;;;;;;;;;;;;7.06;77.06;97937.94;4164134;28;5858;-69
2022/01/30 13:33:01;;;;;;;;;;;;;;;6.95;76.45;97928.41;4165126;28;5855;-70
2022/01/30 13:35:10;;;;;;;;;;;;;;;7.00;76.74;97930.59;4163583;28;5990;-70
2022/01/30 13:37:21;;;;;;;;;;;;;;;6.94;77.00;97918.03;4163862;28;5848;-69
2022/01/30 13:39:34;;;;;;;;;;;;;;;6.98;77.11;97922.84;4165848;28;6008;-69
2022/01/30 13:41:46;;;;;;;;;;;;;;;6.95;76.76;97910.00;4164281;28;5847;-69
2022/01/30 13:44:00;;;;;;;;;;;;;;;6.86;77.95;97918.75;4147063;28;6008;-69
2022/01/30 13:48:22;;;;;;;;;;;;;;;6.87;77.56;97903.78;4147851;28;5865;-70
2022/01/30 13:50:31;;;;;;;;;;;;;;;7.32;73.63;97903.91;4147674;28;5868;-69
2022/01/30 13:52:33;;;;;;;;;;;;;;;7.44;73.13;97894.00;4148097;28;5877;-70
2022/01/30 13:54:37;;;;;;;;;;;;;;;7.63;70.58;97900.97;4149515;28;5837;-70
2022/01/30 13:56:38;;;;;;;;;;;;;;;7.74;71.12;97895.50;4147917;28;5968;-69
2022/01/30 13:58:49;;;;;;;;;;;;;;;7.93;71.79;97891.91;4153645;28;5968;-70
2022/01/30 14:00:51;;;;;;;;;;;;;;;7.82;72.71;97895.59;4135668;28;6521;-70
2022/01/30 14:03:05;;;;;;;;;;;;;;;7.86;71.27;97889.06;4147747;28;5897;-70
2022/01/30 14:05:23;;;;;;;;;;;;;;;8.29;65.55;97888.31;4131313;28;5942;-70
2022/01/30 14:07:25;;;;;;;;;;;;;;;8.48;64.84;97897.03;4147817;28;5969;-70
2022/01/30 14:09:47;;;;;;;;;;;;;;;8.59;64.28;97887.06;4148084;28;5846;-70
2022/01/30 14:12:02;;;;;;;;;;;;;;;8.60;64.81;97885.25;4147615;28;6621;-69
2022/01/30 14:14:10;;;;;;;;;;;;;;;8.71;63.07;97893.75;4150262;28;6131;-69
2022/01/30 14:16:17;;;;;;;;;;;;;;;8.79;62.57;97889.53;4148865;28;5850;-69
2022/01/30 14:18:20;;;;;;;;;;;;;;;8.82;62.33;97884.75;4149040;28;5877;-69
2022/01/30 14:20:30;;;;;;;;;;;;;;;8.85;61.60;97883.63;4148699;28;5870;-70
2022/01/30 14:22:34;;;;;;;;;;;;;;;8.89;61.38;97887.59;4149124;28;5834;-69
2022/01/30 14:24:45;;;;;;;;;;;;;;;8.88;61.80;97885.97;4148541;28;5854;-70
2022/01/30 14:26:47;;;;;;;;;;;;;;;8.87;60.72;97882.50;4148857;28;5888;-70
2022/01/30 14:29:04;;;;;;;;;;;;;;;8.92;61.89;97889.94;4147314;28;5884;-69
2022/01/30 14:31:20;;;;;;;;;;;;;;;8.93;60.87;97881.84;4158622;28;5956;-70
2022/01/30 14:33:23;;;;;;;;;;;;;;;8.92;61.50;97889.94;4165110;28;5828;-70
2022/01/30 14:35:25;;;;;;;;;;;;;;;8.96;61.59;97888.66;4163094;28;5916;-70
2022/01/30 14:37:27;;;;;;;;;;;;;;;8.97;61.68;97892.94;4172109;28;5819;-71
2022/01/30 14:39:31;;;;;;;;;;;;;;;9.05;60.42;97885.06;4155979;28;5790;-70
2022/01/30 14:41:33;;;;;;;;;;;;;;;9.02;61.02;97869.53;4146980;28;5869;-70
2022/01/30 14:43:35;;;;;;;;;;;;;;;8.98;61.04;97873.50;4164905;28;5868;-69
2022/01/30 14:45:39;;;;;;;;;;;;;;;9.00;61.10;97872.34;4147217;28;5877;-69
2022/01/30 14:47:40;;;;;;;;;;;;;;;8.99;60.70;97869.88;4165179;28;5871;-70
2022/01/30 14:49:43;;;;;;;;;;;;;;;9.02;60.87;97859.00;4133412;28;5890;-70
2022/01/30 14:51:46;;;;;;;;;;;;;;;9.03;60.67;97860.66;4168390;28;5759;-70
2022/01/30 14:53:48;;;;;;;;;;;;;;;8.99;60.76;97864.59;4168287;28;5791;-70
2022/01/30 14:55:50;;;;;;;;;;;;;;;8.99;61.30;97859.31;4179153;28;5819;-69
2022/01/30 14:57:53;;;;;;;;;;;;;;;9.00;60.94;97856.53;4167036;28;5836;-69
2022/01/30 14:59:54;;;;;;;;;;;;;;;9.01;61.16;97854.72;4166724;28;6499;-69
2022/01/30 15:01:57;;;;;;;;;;;;;;;9.00;60.95;97853.06;4149170;28;5861;-69
2022/01/30 15:03:59;;;;;;;;;;;;;;;8.99;60.06;97859.31;4184542;28;5954;-69
2022/01/30 15:06:01;;;;;;;;;;;;;;;9.00;60.55;97853.88;4184785;28;5749;-69
2022/01/30 15:08:03;;;;;;;;;;;;;;;8.95;60.99;97847.44;4165762;28;5843;-69
2022/01/30 15:10:06;;;;;;;;;;;;;;;8.92;61.03;97847.72;4166818;28;5969;-70
2022/01/30 15:12:12;;;;;;;;;;;;;;;8.88;60.38;97846.41;4157381;28;5855;-69
2022/01/30 15:14:14;;;;;;;;;;;;;;;8.86;60.51;97843.09;4166449;28;5749;-70
2022/01/30 15:16:29;;;;;;;;;;;;;;;8.87;60.44;97839.47;4182989;28;5834;-70
2022/01/30 15:18:35;;;;;;;;;;;;;;;8.86;60.45;97836.00;4166606;28;5879;-69
2022/01/30 15:20:36;;;;;;;;;;;;;;;8.84;60.63;97839.81;4166223;28;5860;-70
2022/01/30 15:22:39;;;;;;;;;;;;;;;8.83;60.90;97825.75;4172526;28;6691;-69
2022/01/30 15:24:41;;;;;;;;;;;;;;;8.73;60.52;97828.53;4168022;28;5760;-69
2022/01/30 15:26:43;;;;;;;;;;;;;;;8.78;60.50;97827.22;4150176;28;5861;-70
2022/01/30 15:28:51;;;;;;;;;;;;;;;8.77;60.43;97820.31;4162534;28;5871;-69
2022/01/30 15:30:52;;;;;;;;;;;;;;;8.72;60.39;97820.75;4149858;28;5876;-70
2022/01/30 15:32:54;;;;;;;;;;;;;;;8.69;60.68;97816.63;4150198;28;5873;-69
2022/01/30 15:34:57;;;;;;;;;;;;;;;8.71;60.79;97814.66;4167807;28;5764;-70
2022/01/30 15:36:59;;;;;;;;;;;;;;;8.67;61.49;97815.97;4167760;28;5740;-69
2022/01/30 15:39:01;;;;;;;;;;;;;;;8.68;61.20;97808.88;4171459;28;5765;-69
2022/01/30 15:41:03;;;;;;;;;;;;;;;8.67;61.81;97805.41;4183241;28;5741;-70
2022/01/30 15:43:12;;;;;;;;;;;;;;;8.68;61.37;97804.44;4167283;28;5915;-70
2022/01/30 15:49:38;;;;;;;;;;;;;;;8.59;61.90;97799.25;4184262;28;5737;-69
2022/01/30 15:51:44;;;;;;;;;;;;;;;8.48;62.28;97797.72;4183888;28;5788;-70
2022/01/30 15:53:51;;;;;;;;;;;;;;;8.54;62.38;97812.09;4165991;28;5835;-70
2022/01/30 15:55:52;;;;;;;;;;;;;;;8.50;62.60;97805.50;4184134;28;5749;-70
2022/01/30 15:57:54;;;;;;;;;;;;;;;8.54;62.58;97812.09;4165231;28;5843;-70
2022/01/30 15:59:57;;;;;;;;;;;;;;;8.46;62.43;97804.97;4148919;28;5893;-70
2022/01/30 16:01:58;;;;;;;;;;;;;;;8.48;63.09;97812.69;4165548;28;5981;-70
2022/01/30 16:04:02;;;;;;;;;;;;;;;8.48;62.79;97813.53;4183696;28;5903;-70
2022/01/30 16:06:03;;;;;;;;;;;;;;;8.50;63.18;97803.69;4149211;28;5869;-70
2022/01/30 16:08:05;;;;;;;;;;;;;;;8.48;62.75;97808.25;4165731;28;5847;-70
2022/01/30 16:10:13;;;;;;;;;;;;;;;8.48;62.51;97810.06;4182410;28;5814;-70
2022/01/30 16:16:57;;;;;;;;;;;;;;;8.34;63.16;97803.53;4175363;28;5819;-69
2022/01/30 16:18:58;;;;;;;;;;;;;;;8.38;63.14;97805.75;4133184;28;6350;-70
2022/01/30 16:21:00;;;;;;;;;;;;;;;8.36;63.01;97809.50;4177777;28;5793;-69
2022/01/30 16:23:04;;;;;;;;;;;;;;;8.27;63.06;97805.13;4149231;28;5862;-69
2022/01/30 16:25:06;;;;;;;;;;;;;;;8.24;63.18;97802.78;4183561;28;5764;-70
2022/01/30 16:27:09;;;;;;;;;;;;;;;8.25;63.77;97801.81;4183571;28;5753;-69
2022/01/30 16:29:11;;;;;;;;;;;;;;;8.25;63.42;97809.72;4183542;28;5789;-70
2022/01/30 16:31:32;;;;;;;;;;;;;;;8.18;63.58;97805.06;4183157;28;5753;-69
2022/01/30 16:33:34;;;;;;;;;;;;;;;8.07;63.50;97800.06;4183271;28;5745;-70
2022/01/30 16:35:36;;;;;;;;;;;;;;;8.09;63.51;97798.09;4164414;28;5831;-70
2022/01/30 16:37:39;;;;;;;;;;;;;;;8.04;63.30;97805.63;4164608;28;5895;-69
2022/01/30 16:39:41;;;;;;;;;;;;;;;8.05;63.96;97801.19;4156101;28;5837;-69
2022/01/30 16:41:49;;;;;;;;;;;;;;;7.89;64.33;97791.34;4148780;28;5887;-69
2022/01/30 16:43:54;;;;;;;;;;;;;;;7.91;63.87;97794.63;4165071;28;5851;-69
2022/01/30 16:46:09;;;;;;;;;;;;;;;7.85;63.89;97795.25;4149536;28;5885;-69
2022/01/30 16:48:16;;;;;;;;;;;;;;;7.70;64.80;97799.38;4166198;28;5935;-69
2022/01/30 16:50:18;;;;;;;;;;;;;;;7.77;64.45;97800.44;4165134;28;5850;-70
2022/01/30 16:52:20;;;;;;;;;;;;;;;7.66;64.53;97796.22;4164911;28;5899;-70
2022/01/30 16:54:22;;;;;;;;;;;;;;;7.64;64.72;97800.00;4166273;28;6524;-70
2022/01/30 16:56:27;;;;;;;;;;;;;;;7.66;64.77;97796.22;4150220;28;5873;-69
2022/01/30 16:58:28;;;;;;;;;;;;;;;7.68;64.43;97793.44;4157429;28;5832;-69
2022/01/30 17:00:31;;;;;;;;;;;;;;;7.57;64.62;97799.75;4166352;28;5871;-69
2022/01/30 17:02:32;;;;;;;;;;;;;;;7.32;64.95;97790.78;4164739;28;5170;-69
2022/01/30 17:04:34;;;;;;;;;;;;;;;7.45;64.87;97804.41;4166313;28;5915;-69
2022/01/30 17:06:38;;;;;;;;;;;;;;;7.47;65.00;97799.00;4166489;28;5840;-69
2022/01/30 17:08:43;;;;;;;;;;;;;;;7.25;65.50;97797.63;4164838;28;5851;-69
2022/01/30 17:10:49;;;;;;;;;;;;;;;7.34;65.35;97786.22;4165785;28;5875;-69
2022/01/30 17:14:55;;;;;;;;;;;;;;;7.23;65.22;97786.41;4156943;28;5103;-70
2022/01/30 17:16:58;;;;;;;;;;;;;;;7.15;65.39;97781.91;4149720;28;5812;-69
2022/01/30 17:19:00;;;;;;;;;;;;;;;7.20;65.54;97776.19;4162568;28;5907;-69
2022/01/30 17:21:02;;;;;;;;;;;;;;;7.09;65.58;97777.22;4155328;28;5845;-69
2022/01/30 17:23:04;;;;;;;;;;;;;;;6.96;65.99;97766.25;4159431;28;5859;-69
2022/01/30 17:25:06;;;;;;;;;;;;;;;6.98;65.96;97775.63;4153819;28;5869;-68
2022/01/30 17:27:09;;;;;;;;;;;;;;;7.10;65.53;97778.06;4164674;28;5815;-70
2022/01/30 17:29:11;;;;;;;;;;;;;;;7.10;65.59;97772.78;4161895;28;5884;-69
2022/01/30 17:31:13;;;;;;;;;;;;;;;7.09;64.95;97773.78;4160810;28;5869;-69
2022/01/30 17:33:15;;;;;;;;;;;;;;;7.04;64.93;97768.97;4163903;28;5864;-71
2022/01/30 17:35:17;;;;;;;;;;;;;;;6.99;65.19;97769.38;4164440;28;5851;-70
2022/01/30 17:37:20;;;;;;;;;;;;;;;6.96;64.74;97767.06;4171363;28;6003;-69
2022/01/30 17:39:23;;;;;;;;;;;;;;;7.03;64.95;97771.75;4172825;28;6555;-69
2022/01/30 17:41:30;;;;;;;;;;;;;;;7.02;65.18;97773.53;4160877;28;5828;-68
2022/01/30 17:43:32;;;;;;;;;;;;;;;6.98;65.00;97770.38;4164619;28;5839;-69
2022/01/30 17:45:35;;;;;;;;;;;;;;;6.98;64.82;97765.09;4167629;28;5670;-69
2022/01/30 17:47:41;;;;;;;;;;;;;;;6.95;64.80;97778.56;4153045;28;5900;-69
2022/01/30 17:49:45;;;;;;;;;;;;;;;6.98;64.70;97773.00;4173767;28;5749;-71
2022/01/30 17:51:47;;;;;;;;;;;;;;;7.02;64.86;97776.16;4182245;28;5852;-69
2022/01/30 17:53:50;;;;;;;;;;;;;;;7.04;64.88;97783.91;4181704;28;5737;-69
2022/01/30 17:55:52;;;;;;;;;;;;;;;7.04;65.03;97782.13;4163886;28;5860;-69
2022/01/30 17:57:55;;;;;;;;;;;;;;;6.92;65.19;97786.75;4182382;28;5753;-69
2022/01/30 17:59:58;;;;;;;;;;;;;;;6.97;65.03;97789.75;4181294;28;5669;-69